createdAt,value
2022-12-06T00:02:14.352Z,100410.47
2022-12-06T00:05:18.513Z,100413.75
2022-12-06T00:08:22.184Z,100411.84
2022-12-06T00:11:29.738Z,100411.50
2022-12-06T00:14:33.467Z,100412.78
2022-12-06T00:17:42.782Z,100400.22
2022-12-06T00:20:46.774Z,100407.81
2022-12-06T00:23:52.599Z,100398.22
2022-12-06T00:26:57.723Z,100395.34
2022-12-06T00:30:01.565Z,100393.00
2022-12-06T00:33:05.657Z,100400.22
2022-12-06T00:36:12.853Z,100401.56
2022-12-06T00:39:18.843Z,100394.69
2022-12-06T00:42:23.993Z,100391.13
2022-12-06T00:45:27.728Z,100387.25
2022-12-06T00:48:31.724Z,100379.63
2022-12-06T00:51:36.739Z,100381.19
2022-12-06T00:54:40.395Z,100373.13
2022-12-06T00:57:45.473Z,100372.88
2022-12-06T01:00:49.370Z,100371.25
2022-12-06T01:03:55.305Z,100360.34
2022-12-06T01:06:58.867Z,100356.44
2022-12-06T01:10:02.444Z,100361.19
2022-12-06T01:13:08.415Z,100350.94
2022-12-06T01:16:14.819Z,100344.44
2022-12-06T01:19:18.395Z,100337.22
2022-12-06T01:22:21.950Z,100327.13
2022-12-06T01:25:26.443Z,100337.44
2022-12-06T01:28:32.132Z,100340.03
2022-12-06T01:31:38.758Z,100337.41
2022-12-06T01:34:43.744Z,100336.91
2022-12-06T01:37:47.264Z,100340.97
2022-12-06T01:40:51.544Z,100338.78
2022-12-06T01:43:57.835Z,100341.69
2022-12-06T01:47:01.447Z,100338.97
2022-12-06T01:50:11.590Z,100336.47
2022-12-06T01:53:15.796Z,100336.94
2022-12-06T01:56:20.489Z,100335.41
2022-12-06T01:59:27.037Z,100330.66
2022-12-06T02:02:30.747Z,100332.91
2022-12-06T02:05:40.305Z,100337.41
2022-12-06T02:08:45.828Z,100321.75
2022-12-06T02:11:49.539Z,100325.25
2022-12-06T02:14:56.932Z,100314.16
2022-12-06T02:18:12.279Z,100311.03
2022-12-06T02:21:24.912Z,100315.16
2022-12-06T02:24:55.985Z,100318.03
2022-12-06T02:28:23.102Z,100307.84
2022-12-06T02:31:35.089Z,100310.81
2022-12-06T02:34:46.540Z,100312.78
2022-12-06T02:37:55.846Z,100321.97
2022-12-06T02:41:03.120Z,100318.41
2022-12-06T02:44:09.962Z,100324.91
2022-12-06T02:47:16.952Z,100317.16
2022-12-06T02:50:24.252Z,100318.06
2022-12-06T02:53:31.383Z,100316.56
2022-12-06T02:56:36.136Z,100320.81
2022-12-06T02:59:39.731Z,100314.63
2022-12-06T03:02:45.064Z,100317.34
2022-12-06T03:06:08.666Z,100314.53
2022-12-06T03:09:26.386Z,100314.19
2022-12-06T03:12:36.358Z,100315.94
2022-12-06T03:15:49.775Z,100311.81
2022-12-06T03:19:01.222Z,100314.31
2022-12-06T03:22:09.591Z,100317.50
2022-12-06T03:25:14.453Z,100306.81
2022-12-06T03:28:20.113Z,100307.31
2022-12-06T03:31:25.761Z,100311.00
2022-12-06T03:34:34.398Z,100310.38
2022-12-06T03:37:40.356Z,100314.66
2022-12-06T03:40:47.844Z,100310.69
2022-12-06T03:43:51.465Z,100309.34
2022-12-06T03:47:00.978Z,100302.44
2022-12-06T03:50:11.795Z,100306.81
2022-12-06T03:53:18.559Z,100300.41
2022-12-06T03:56:23.710Z,100301.84
2022-12-06T03:59:27.246Z,100298.41
2022-12-06T04:02:30.865Z,100299.94
2022-12-06T04:05:36.000Z,100296.28
2022-12-06T04:08:40.138Z,100307.28
2022-12-06T04:11:43.847Z,100304.00
2022-12-06T04:14:47.494Z,100303.31
2022-12-06T04:18:09.192Z,100296.16
2022-12-06T04:21:31.943Z,100295.97
2022-12-06T04:24:35.682Z,100299.53
2022-12-06T04:27:56.883Z,100291.00
2022-12-06T04:31:22.047Z,100285.88
2022-12-06T04:34:43.707Z,100286.31
2022-12-06T04:38:06.362Z,100292.25
2022-12-06T04:41:10.114Z,100287.91
2022-12-06T04:44:13.103Z,100296.81
2022-12-06T04:47:16.914Z,100296.00
2022-12-06T04:50:20.565Z,100290.09
2022-12-06T04:53:25.633Z,100293.75
2022-12-06T04:56:29.383Z,100291.94
2022-12-06T04:59:33.134Z,100291.13
2022-12-06T05:02:36.856Z,100299.56
2022-12-06T05:05:40.975Z,100304.78
2022-12-06T05:08:46.187Z,100304.81
2022-12-06T05:11:49.854Z,100306.94
2022-12-06T05:14:53.564Z,100301.34
2022-12-06T05:17:57.249Z,100310.72
2022-12-06T05:21:05.900Z,100311.41
2022-12-06T05:24:11.464Z,100305.00
2022-12-06T05:27:15.161Z,100305.72
2022-12-06T05:30:19.134Z,100305.13
2022-12-06T05:33:23.394Z,100308.09
2022-12-06T05:36:28.696Z,100306.56
2022-12-06T05:39:33.924Z,100296.97
2022-12-06T05:42:37.954Z,100302.19
2022-12-06T05:45:42.419Z,100303.25
2022-12-06T05:48:46.234Z,100307.50
2022-12-06T05:51:49.943Z,100303.94
2022-12-06T05:54:55.095Z,100306.91
2022-12-06T05:57:58.834Z,100303.69
2022-12-06T06:01:02.684Z,100312.09
2022-12-06T06:04:06.693Z,100312.34
2022-12-06T06:07:10.313Z,100304.44
2022-12-06T06:10:16.153Z,100316.84
2022-12-06T06:13:19.794Z,100310.94
2022-12-06T06:16:23.678Z,100312.09
2022-12-06T06:19:27.425Z,100308.69
2022-12-06T06:22:31.184Z,100308.09
2022-12-06T06:25:36.304Z,100298.16
2022-12-06T06:28:40.594Z,100296.00
2022-12-06T06:31:44.349Z,100301.44
2022-12-06T06:34:48.094Z,100300.34
2022-12-06T06:37:51.823Z,100302.81
2022-12-06T06:40:57.053Z,100295.81
2022-12-06T06:44:00.774Z,100302.09
2022-12-06T06:47:05.124Z,100300.19
2022-12-06T06:50:10.017Z,100300.34
2022-12-06T06:53:13.865Z,100304.56
2022-12-06T06:56:20.354Z,100303.34
2022-12-06T06:59:24.273Z,100297.53
2022-12-06T07:02:28.098Z,100299.50
2022-12-06T07:05:31.924Z,100304.41
2022-12-06T07:08:36.056Z,100303.53
2022-12-06T07:11:41.164Z,100301.25
2022-12-06T07:14:44.845Z,100302.25
2022-12-06T07:17:48.537Z,100295.50
2022-12-06T07:21:01.249Z,100294.88
2022-12-06T07:24:05.105Z,100292.28
2022-12-06T07:27:10.593Z,100286.63
2022-12-06T07:30:17.151Z,100288.88
2022-12-06T07:33:21.915Z,100288.56
2022-12-06T07:36:26.144Z,100283.66
2022-12-06T07:39:32.276Z,100292.75
2022-12-06T07:42:55.051Z,100289.66
2022-12-06T07:45:58.824Z,100292.13
2022-12-06T07:49:02.675Z,100291.50
2022-12-06T07:52:06.476Z,100293.66
2022-12-06T07:55:11.786Z,100288.53
2022-12-06T07:58:16.952Z,100283.16
2022-12-06T08:01:20.954Z,100271.78
2022-12-06T08:04:24.921Z,100276.81
2022-12-06T08:07:29.084Z,100285.81
2022-12-06T08:10:32.875Z,100288.44
2022-12-06T08:13:39.214Z,100284.72
2022-12-06T08:16:43.163Z,100288.72
2022-12-06T08:19:47.243Z,100284.75
2022-12-06T08:22:50.944Z,100282.69
2022-12-06T08:25:58.993Z,100284.31
2022-12-06T08:29:04.272Z,100275.34
2022-12-06T08:32:07.994Z,100264.34
2022-12-06T08:35:11.583Z,100272.34
2022-12-06T08:38:15.364Z,100263.00
2022-12-06T08:41:37.493Z,100249.91
2022-12-06T08:44:42.744Z,100250.88
2022-12-06T08:47:46.337Z,100242.88
2022-12-06T08:50:50.054Z,100240.38
2022-12-06T08:53:54.733Z,100244.69
2022-12-06T08:56:58.964Z,100237.94
2022-12-06T09:00:06.397Z,100240.94
2022-12-06T09:03:10.124Z,100234.22
2022-12-06T09:06:14.314Z,100233.50
2022-12-06T09:09:19.527Z,100228.81
2022-12-06T09:12:23.546Z,100219.75
2022-12-06T09:15:28.897Z,100221.94
2022-12-06T09:18:32.994Z,100219.31
2022-12-06T09:21:39.654Z,100214.91
2022-12-06T09:24:43.386Z,100209.25
2022-12-06T09:27:47.114Z,100202.22
2022-12-06T09:30:52.551Z,100196.50
2022-12-06T09:33:56.283Z,100198.00
2022-12-06T09:37:05.476Z,100201.03
2022-12-06T09:40:15.767Z,100192.75
2022-12-06T09:43:34.234Z,100186.69
2022-12-06T09:46:54.757Z,100186.69
2022-12-06T09:50:13.644Z,100182.84
2022-12-06T09:53:24.845Z,100173.50
2022-12-06T09:56:34.804Z,100174.34
2022-12-06T09:59:48.864Z,100171.56
2022-12-06T10:03:16.599Z,100165.25
2022-12-06T10:06:24.553Z,100163.56
2022-12-06T10:09:40.063Z,100158.06
2022-12-06T10:13:04.774Z,100151.47
2022-12-06T10:16:17.429Z,100137.44
2022-12-06T10:19:33.684Z,100128.06
2022-12-06T10:22:50.864Z,100120.34
2022-12-06T10:26:02.647Z,100120.22
2022-12-06T10:29:17.924Z,100107.13
2022-12-06T10:32:35.673Z,100110.75
2022-12-06T10:35:46.204Z,100106.72
2022-12-06T10:38:54.871Z,100092.81
2022-12-06T10:42:04.354Z,100089.53
2022-12-06T10:45:32.964Z,100084.56
2022-12-06T10:48:43.724Z,100081.53
2022-12-06T10:51:56.093Z,100071.91
2022-12-06T10:55:06.643Z,100065.44
2022-12-06T10:58:17.223Z,100060.59
2022-12-06T11:01:25.510Z,100062.06
2022-12-06T11:04:34.153Z,100055.13
2022-12-06T11:07:45.133Z,100057.72
2022-12-06T11:10:49.886Z,100059.06
2022-12-06T11:13:58.333Z,100053.91
2022-12-06T11:17:06.033Z,100043.00
2022-12-06T11:20:24.206Z,100043.00
2022-12-06T11:23:38.405Z,100030.31
2022-12-06T11:26:46.436Z,100027.25
2022-12-06T11:29:51.606Z,100023.97
2022-12-06T11:32:56.083Z,100019.84
2022-12-06T11:36:02.704Z,100021.81
2022-12-06T11:39:07.904Z,100017.88
2022-12-06T11:42:14.745Z,100014.78
2022-12-06T11:45:23.405Z,100025.56
2022-12-06T11:48:29.614Z,100024.31
2022-12-06T11:51:33.447Z,100013.84
2022-12-06T11:54:44.045Z,100019.94
2022-12-06T11:57:54.044Z,100017.81
2022-12-06T12:01:01.150Z,100015.78
2022-12-06T12:04:25.833Z,100014.41
2022-12-06T12:07:29.918Z,100009.34
2022-12-06T12:10:38.511Z,99998.16
2022-12-06T12:13:53.043Z,99996.25
2022-12-06T12:17:01.600Z,99983.19
2022-12-06T12:20:09.074Z,99978.38
2022-12-06T12:23:20.163Z,99978.13
2022-12-06T12:26:25.605Z,99976.75
2022-12-06T12:29:29.644Z,99970.81
2022-12-06T12:32:33.491Z,99966.81
2022-12-06T12:35:39.452Z,99969.28
2022-12-06T12:38:50.422Z,99959.03
2022-12-06T12:41:55.713Z,99963.06
2022-12-06T12:45:02.486Z,99971.09
2022-12-06T12:48:24.126Z,99964.22
2022-12-06T12:51:35.335Z,99960.59
2022-12-06T12:54:39.333Z,99952.75
2022-12-06T12:57:46.726Z,99947.25
2022-12-06T13:00:51.828Z,99946.06
2022-12-06T13:03:58.845Z,99947.16
2022-12-06T13:07:05.704Z,99944.69
2022-12-06T13:10:18.853Z,99946.72
2022-12-06T13:13:28.928Z,99938.91
2022-12-06T13:16:36.930Z,99937.66
2022-12-06T13:19:53.039Z,99938.06
2022-12-06T13:23:01.813Z,99936.31
2022-12-06T13:26:19.911Z,99939.16
2022-12-06T13:29:31.163Z,99947.03
2022-12-06T13:32:40.353Z,99947.59
2022-12-06T13:35:49.514Z,99950.63
2022-12-06T13:38:53.364Z,99948.00
2022-12-06T13:42:16.754Z,99957.47
2022-12-06T13:45:43.559Z,99948.25
2022-12-06T13:48:52.017Z,99943.72
2022-12-06T13:51:55.813Z,99948.97
2022-12-06T13:54:59.573Z,99948.81
2022-12-06T13:58:40.974Z,99953.47
2022-12-06T14:01:47.587Z,99951.00
2022-12-06T14:04:51.733Z,99958.03
2022-12-06T14:07:59.111Z,99956.09
2022-12-06T14:11:19.444Z,99962.56
2022-12-06T14:14:24.955Z,99962.16
2022-12-06T14:18:01.483Z,99967.91
2022-12-06T14:21:03.943Z,99966.25
2022-12-06T14:24:07.985Z,99974.75
2022-12-06T14:27:16.143Z,99972.31
2022-12-06T14:30:25.981Z,99972.03
2022-12-06T14:33:31.664Z,99976.81
2022-12-06T14:36:37.038Z,99960.13
2022-12-06T14:39:40.863Z,99970.09
2022-12-06T14:43:02.054Z,99969.66
2022-12-06T14:46:09.030Z,99965.94
2022-12-06T14:49:37.796Z,99959.34
2022-12-06T14:52:58.923Z,99967.03
2022-12-06T14:56:05.854Z,99961.81
2022-12-06T14:59:13.513Z,99960.47
2022-12-06T15:02:24.128Z,99961.03
2022-12-06T15:05:38.066Z,99955.50
2022-12-06T15:08:43.634Z,99955.75
2022-12-06T15:12:04.983Z,99950.78
2022-12-06T15:15:33.055Z,99949.50
2022-12-06T15:18:38.823Z,99947.88
2022-12-06T15:21:44.245Z,99948.66
2022-12-06T15:24:50.844Z,99940.16
2022-12-06T15:27:54.677Z,99946.88
2022-12-06T15:30:58.843Z,99939.72
2022-12-06T15:34:02.723Z,99941.66
2022-12-06T15:37:37.462Z,99931.88
2022-12-06T15:40:31.704Z,99934.09
2022-12-06T15:43:36.564Z,99938.09
2022-12-06T15:46:41.051Z,99940.69
2022-12-06T15:49:45.687Z,99932.72
2022-12-06T15:52:50.907Z,99931.34
2022-12-06T15:55:55.117Z,99928.75
2022-12-06T15:58:58.883Z,99930.53
2022-12-06T16:02:02.881Z,99926.53
2022-12-06T16:05:07.297Z,99934.81
2022-12-06T16:08:13.409Z,99927.25
2022-12-06T16:11:19.358Z,99929.72
2022-12-06T16:14:22.925Z,99935.63
2022-12-06T16:17:26.625Z,99932.72
2022-12-06T16:20:33.284Z,99934.81
2022-12-06T16:24:13.443Z,99925.03
2022-12-06T16:27:17.873Z,99929.28
2022-12-06T16:30:33.255Z,99928.59
2022-12-06T16:33:37.092Z,99923.66
2022-12-06T16:36:58.377Z,99923.34
2022-12-06T16:40:03.601Z,99922.56
2022-12-06T16:43:07.284Z,99917.88
2022-12-06T16:46:27.891Z,99928.19
2022-12-06T16:49:49.065Z,99926.81
2022-12-06T16:52:53.443Z,99932.97
2022-12-06T16:55:58.586Z,99929.16
2022-12-06T16:59:02.714Z,99920.63
2022-12-06T17:02:19.653Z,99926.66
2022-12-06T17:05:25.807Z,99924.31
2022-12-06T17:08:29.560Z,99919.38
2022-12-06T17:11:54.208Z,99925.28
2022-12-06T17:14:58.419Z,99921.88
2022-12-06T17:18:02.343Z,99915.28
2022-12-06T17:21:08.013Z,99920.22
2022-12-06T17:24:12.376Z,99914.88
2022-12-06T17:27:18.352Z,99914.75
2022-12-06T17:30:23.592Z,99917.59
2022-12-06T17:33:27.313Z,99914.88
2022-12-06T17:36:31.523Z,99909.75
2022-12-06T17:39:35.481Z,99907.59
2022-12-06T17:42:58.097Z,99910.03
2022-12-06T17:46:08.832Z,99902.63
2022-12-06T17:49:15.523Z,99895.91
2022-12-06T17:52:19.344Z,99901.13
2022-12-06T17:55:23.136Z,99900.16
2022-12-06T17:58:28.304Z,99897.97
2022-12-06T18:01:51.270Z,99890.00
2022-12-06T18:04:56.794Z,99886.53
2022-12-06T18:08:00.739Z,99890.00
2022-12-06T18:11:06.243Z,99884.63
2022-12-06T18:14:13.043Z,99885.19
2022-12-06T18:17:16.864Z,99881.31
2022-12-06T18:20:20.616Z,99885.47
2022-12-06T18:23:24.303Z,99885.47
2022-12-06T18:26:28.614Z,99886.00
2022-12-06T18:29:34.385Z,99885.06
2022-12-06T18:32:38.143Z,99881.63
2022-12-06T18:35:41.863Z,99883.69
2022-12-06T18:38:46.133Z,99878.31
2022-12-06T18:41:49.793Z,99876.41
2022-12-06T18:44:58.278Z,99869.50
2022-12-06T18:48:03.197Z,99869.38
2022-12-06T18:51:07.883Z,99870.19
2022-12-06T18:54:14.131Z,99865.81
2022-12-06T18:57:18.053Z,99861.53
2022-12-06T19:00:24.014Z,99873.78
2022-12-06T19:03:27.754Z,99866.06
2022-12-06T19:06:33.483Z,99868.41
2022-12-06T19:09:37.253Z,99873.78
2022-12-06T19:12:41.004Z,99873.34
2022-12-06T19:15:46.083Z,99875.56
2022-12-06T19:18:50.133Z,99872.69
2022-12-06T19:21:55.793Z,99871.97
2022-12-06T19:24:59.393Z,99877.06
2022-12-06T19:28:03.273Z,99872.69
2022-12-06T19:31:11.141Z,99866.09
2022-12-06T19:34:16.927Z,99874.59
2022-12-06T19:37:20.604Z,99864.41
2022-12-06T19:40:24.394Z,99869.63
2022-12-06T19:43:45.720Z,99870.47
2022-12-06T19:46:50.983Z,99859.63
2022-12-06T19:49:54.834Z,99854.13
2022-12-06T19:52:58.444Z,99867.97
2022-12-06T19:56:02.306Z,99863.97
2022-12-06T19:59:11.868Z,99856.97
2022-12-06T20:02:17.134Z,99855.41
2022-12-06T20:05:20.787Z,99843.50
2022-12-06T20:08:24.543Z,99851.88
2022-12-06T20:11:47.020Z,99844.75
2022-12-06T20:14:51.251Z,99843.50
2022-12-06T20:17:56.447Z,99845.88
2022-12-06T20:21:00.246Z,99841.44
2022-12-06T20:24:04.171Z,99847.50
2022-12-06T20:27:07.894Z,99842.66
2022-12-06T20:30:12.734Z,99841.31
2022-12-06T20:33:17.966Z,99844.84
2022-12-06T20:36:23.303Z,99850.19
2022-12-06T20:39:28.776Z,99846.63
2022-12-06T20:42:33.663Z,99850.06
2022-12-06T20:45:37.634Z,99846.09
2022-12-06T20:48:43.894Z,99849.53
2022-12-06T20:51:52.561Z,99849.06
2022-12-06T20:54:56.874Z,99851.97
2022-12-06T20:58:00.694Z,99843.38
2022-12-06T21:01:05.025Z,99840.19
2022-12-06T21:04:14.302Z,99845.69
2022-12-06T21:07:17.995Z,99846.25
2022-12-06T21:10:21.825Z,99833.84
2022-12-06T21:13:26.565Z,99838.66
2022-12-06T21:16:31.584Z,99836.50
2022-12-06T21:19:36.803Z,99837.69
2022-12-06T21:22:40.545Z,99836.47
2022-12-06T21:25:44.163Z,99839.16
2022-12-06T21:28:47.966Z,99849.50
2022-12-06T21:31:51.693Z,99838.66
2022-12-06T21:34:56.922Z,99827.56
2022-12-06T21:38:00.491Z,99836.03
2022-12-06T21:41:09.375Z,99838.94
2022-12-06T21:44:13.070Z,99831.91
2022-12-06T21:47:16.684Z,99830.25
2022-12-06T21:50:21.857Z,99827.00
2022-12-06T21:53:25.524Z,99829.66
2022-12-06T21:56:31.133Z,99824.94
2022-12-06T21:59:34.903Z,99824.72
2022-12-06T22:02:38.679Z,99809.63
2022-12-06T22:05:44.364Z,99811.31
2022-12-06T22:08:49.756Z,99811.09
2022-12-06T22:11:53.516Z,99795.84
2022-12-06T22:14:57.245Z,99805.50
2022-12-06T22:18:00.954Z,99815.19
2022-12-06T22:21:08.024Z,99806.44
2022-12-06T22:24:11.735Z,99812.22
2022-12-06T22:27:15.424Z,99803.75
2022-12-06T22:30:19.518Z,99795.53
2022-12-06T22:33:23.223Z,99792.28
2022-12-06T22:36:29.203Z,99794.06
2022-12-06T22:39:32.781Z,99799.84
2022-12-06T22:42:36.893Z,99788.06
2022-12-06T22:45:40.488Z,99789.34
2022-12-06T22:48:44.961Z,99785.16
2022-12-06T22:51:50.070Z,99779.41
2022-12-06T22:54:53.668Z,99780.75
2022-12-06T22:57:57.171Z,99779.00
2022-12-06T23:01:00.823Z,99780.94
2022-12-06T23:04:06.807Z,99779.00
2022-12-06T23:07:12.254Z,99772.72
2022-12-06T23:10:16.296Z,99771.84
2022-12-06T23:13:20.029Z,99766.63
2022-12-06T23:16:25.494Z,99763.13
2022-12-06T23:19:29.418Z,99758.56
2022-12-06T23:22:34.805Z,99764.69
2022-12-06T23:25:38.546Z,99751.94
2022-12-06T23:28:42.295Z,99756.75
2022-12-06T23:31:47.277Z,99747.94
2022-12-06T23:34:51.086Z,99753.03
2022-12-06T23:37:56.306Z,99747.97
2022-12-06T23:41:04.067Z,99750.50
2022-12-06T23:44:08.876Z,99752.78
2022-12-06T23:47:12.752Z,99748.69
2022-12-06T23:50:16.646Z,99751.97
2022-12-06T23:53:21.867Z,99759.66
2022-12-06T23:56:27.003Z,99754.41
2022-12-06T23:59:30.653Z,99760.53
